createdAt,value
2018-02-17T00:01:24.656Z,33.90
2018-02-17T00:03:52.312Z,33.17
2018-02-17T00:06:19.986Z,35.47
2018-02-17T00:08:47.658Z,35.10
2018-02-17T00:11:15.327Z,34.27
2018-02-17T00:13:42.987Z,34.63
2018-02-17T00:16:10.648Z,36.40
2018-02-17T00:18:38.335Z,35.50
2018-02-17T00:21:06.838Z,36.20
2018-02-17T00:23:34.543Z,35.13
2018-02-17T00:26:02.228Z,35.93
2018-02-17T00:28:29.925Z,36.47
2018-02-17T00:30:57.606Z,35.53
2018-02-17T00:33:25.268Z,37.33
2018-02-17T00:35:52.945Z,35.97
2018-02-17T00:38:20.614Z,34.40
2018-02-17T00:40:48.269Z,36.43
2018-02-17T00:43:15.926Z,36.17
2018-02-17T00:45:43.603Z,35.23
2018-02-17T00:48:11.281Z,35.67
2018-02-17T00:50:38.965Z,36.63
2018-02-17T00:53:07.396Z,36.83
2018-02-17T00:55:35.061Z,36.83
2018-02-17T00:58:02.767Z,36.83
2018-02-17T01:00:31.184Z,35.47
2018-02-17T01:02:58.841Z,36.33
2018-02-17T01:05:26.507Z,38.00
2018-02-17T01:07:54.156Z,37.80
2018-02-17T01:10:21.800Z,36.03
2018-02-17T01:12:50.239Z,36.27
2018-02-17T01:15:17.928Z,37.53
2018-02-17T01:17:45.585Z,37.17
2018-02-17T01:20:13.269Z,36.47
2018-02-17T01:22:41.696Z,37.07
2018-02-17T01:25:09.362Z,38.23
2018-02-17T01:27:37.047Z,36.80
2018-02-17T01:30:04.717Z,38.67
2018-02-17T01:32:32.387Z,37.67
2018-02-17T01:35:00.820Z,38.93
2018-02-17T01:37:28.490Z,39.63
2018-02-17T01:39:56.163Z,39.53
2018-02-17T01:42:23.876Z,37.63
2018-02-17T01:44:51.550Z,39.10
2018-02-17T01:47:19.266Z,38.43
2018-02-17T01:49:46.935Z,39.57
2018-02-17T01:52:15.400Z,40.93
2018-02-17T01:54:43.114Z,40.90
2018-02-17T01:57:10.766Z,40.40
2018-02-17T01:59:38.444Z,40.43
2018-02-17T02:02:06.111Z,40.57
2018-02-17T02:04:33.853Z,40.67
2018-02-17T02:07:01.526Z,40.10
2018-02-17T02:09:29.210Z,40.97
2018-02-17T02:11:56.887Z,40.50
2018-02-17T02:14:24.574Z,41.97
2018-02-17T02:16:53.003Z,42.10
2018-02-17T02:19:20.699Z,41.73
2018-02-17T02:21:48.371Z,40.87
2018-02-17T02:24:16.839Z,41.67
2018-02-17T02:26:45.276Z,41.17
2018-02-17T02:29:12.937Z,40.63
2018-02-17T02:31:40.625Z,40.73
2018-02-17T02:34:08.300Z,41.50
2018-02-17T02:36:35.973Z,40.43
2018-02-17T02:39:04.484Z,40.77
2018-02-17T02:41:32.132Z,40.17
2018-02-17T02:43:59.814Z,40.97
2018-02-17T02:46:27.499Z,40.37
2018-02-17T02:48:55.908Z,41.23
2018-02-17T02:51:23.567Z,41.83
2018-02-17T02:53:51.237Z,40.27
2018-02-17T02:56:19.686Z,41.60
2018-02-17T02:58:48.172Z,40.73
2018-02-17T03:01:15.881Z,39.73
2018-02-17T03:03:43.552Z,44.03
2018-02-17T03:06:11.219Z,43.23
2018-02-17T03:08:38.891Z,41.77
2018-02-17T03:11:06.567Z,40.53
2018-02-17T03:13:34.217Z,40.73
2018-02-17T03:16:01.874Z,41.57
2018-02-17T03:18:29.591Z,41.70
2018-02-17T03:20:58.035Z,42.17
2018-02-17T03:23:25.684Z,41.00
2018-02-17T03:25:53.363Z,40.53
2018-02-17T03:28:21.048Z,42.07
2018-02-17T03:30:49.506Z,40.83
2018-02-17T03:33:17.181Z,40.40
2018-02-17T03:35:44.821Z,39.50
2018-02-17T03:38:12.500Z,40.33
2018-02-17T03:40:40.168Z,41.67
2018-02-17T03:43:08.605Z,41.67
2018-02-17T03:45:36.287Z,39.93
2018-02-17T03:48:03.992Z,41.33
2018-02-17T03:50:31.637Z,41.50
2018-02-17T03:53:00.087Z,40.27
2018-02-17T03:55:27.763Z,42.10
2018-02-17T03:57:55.403Z,40.83
2018-02-17T04:00:23.056Z,42.27
2018-02-17T04:02:50.714Z,41.40
2018-02-17T04:05:18.511Z,41.57
2018-02-17T04:07:46.986Z,41.57
2018-02-17T04:10:14.662Z,42.00
2018-02-17T04:12:43.096Z,40.43
2018-02-17T04:15:10.770Z,40.27
2018-02-17T04:17:38.427Z,42.17
2018-02-17T04:20:06.094Z,41.80
2018-02-17T04:22:33.740Z,40.87
2018-02-17T04:25:01.414Z,40.83
2018-02-17T04:27:29.072Z,41.00
2018-02-17T04:29:56.774Z,40.63
2018-02-17T04:32:24.445Z,42.00
2018-02-17T04:34:52.111Z,40.83
2018-02-17T04:37:19.795Z,42.07
2018-02-17T04:40:03.103Z,41.37
2018-02-17T04:42:47.666Z,42.30
2018-02-17T04:45:16.838Z,42.97
2018-02-17T04:48:02.225Z,41.17
2018-02-17T04:50:34.843Z,41.70
2018-02-17T04:53:17.376Z,41.07
2018-02-17T04:56:04.765Z,40.63
2018-02-17T04:58:47.314Z,41.03
2018-02-17T05:01:17.596Z,41.33
2018-02-17T05:03:45.785Z,41.73
2018-02-17T05:06:28.368Z,41.20
2018-02-17T05:09:03.748Z,41.53
2018-02-17T05:11:32.217Z,42.67
2018-02-17T05:14:16.692Z,39.80
2018-02-17T05:16:48.640Z,40.57
2018-02-17T05:19:17.115Z,45.67
2018-02-17T05:21:50.597Z,42.03
2018-02-17T05:24:33.138Z,42.63
2018-02-17T05:27:15.692Z,42.47
2018-02-17T05:29:46.023Z,42.40
2018-02-17T05:32:14.341Z,41.00
2018-02-17T05:34:42.822Z,42.47
2018-02-17T05:37:11.278Z,43.73
2018-02-17T05:39:44.458Z,44.77
2018-02-17T05:42:14.844Z,42.80
2018-02-17T05:44:48.247Z,43.17
2018-02-17T05:47:17.749Z,44.50
2018-02-17T05:50:00.326Z,42.70
2018-02-17T05:52:28.753Z,45.97
2018-02-17T05:54:56.422Z,43.80
2018-02-17T05:57:24.149Z,42.43
2018-02-17T05:59:51.876Z,44.47
2018-02-17T06:02:20.398Z,45.00
2018-02-17T06:04:48.208Z,44.07
2018-02-17T06:07:15.957Z,42.97
2018-02-17T06:09:43.703Z,45.30
2018-02-17T06:12:11.429Z,45.13
2018-02-17T06:14:39.259Z,42.43
2018-02-17T06:17:07.787Z,46.67
2018-02-17T06:19:35.516Z,42.87
2018-02-17T06:22:04.040Z,46.07
2018-02-17T06:24:31.783Z,44.73
2018-02-17T06:26:59.505Z,46.33
2018-02-17T06:29:27.233Z,43.33
2018-02-17T06:31:54.967Z,44.90
2018-02-17T06:34:22.739Z,44.47
2018-02-17T06:36:50.454Z,43.83
2018-02-17T06:39:18.179Z,45.80
2018-02-17T06:41:45.940Z,46.63
2018-02-17T06:44:13.687Z,44.10
2018-02-17T06:46:41.406Z,47.73
2018-02-17T06:49:09.894Z,45.20
2018-02-17T06:51:38.404Z,45.43
2018-02-17T06:54:06.104Z,46.70
2018-02-17T06:56:33.900Z,45.17
2018-02-17T06:59:02.418Z,48.13
2018-02-17T07:01:30.192Z,43.90
2018-02-17T07:03:57.903Z,46.93
2018-02-17T07:06:26.433Z,44.93
2018-02-17T07:08:54.220Z,48.27
2018-02-17T07:11:21.933Z,47.47
2018-02-17T07:13:49.679Z,45.93
2018-02-17T07:16:18.206Z,46.10
2018-02-17T07:18:45.915Z,46.07
2018-02-17T07:21:14.539Z,44.00
2018-02-17T07:23:42.273Z,47.47
2018-02-17T07:26:09.997Z,48.20
2018-02-17T07:28:37.806Z,46.00
2018-02-17T07:31:05.526Z,45.80
2018-02-17T07:33:33.272Z,46.63
2018-02-17T07:36:01.022Z,46.43
2018-02-17T07:38:28.806Z,45.47
2018-02-17T07:40:56.525Z,44.70
2018-02-17T07:43:24.271Z,45.93
2018-02-17T07:45:53.113Z,45.77
2018-02-17T07:48:20.842Z,48.87
2018-02-17T07:50:48.544Z,45.50
2018-02-17T07:53:16.268Z,45.40
2018-02-17T07:55:43.975Z,46.47
2018-02-17T07:58:11.686Z,47.13
2018-02-17T08:00:39.451Z,47.70
2018-02-17T08:03:07.232Z,46.07
2018-02-17T08:05:34.961Z,45.50
2018-02-17T08:08:02.770Z,46.53
2018-02-17T08:10:30.532Z,43.37
2018-02-17T08:12:58.276Z,46.60
2018-02-17T08:15:26.043Z,46.27
2018-02-17T08:17:53.769Z,45.50
2018-02-17T08:20:22.331Z,47.53
2018-02-17T08:22:50.057Z,46.03
2018-02-17T08:25:17.820Z,47.40
2018-02-17T08:27:45.583Z,44.83
2018-02-17T08:30:13.315Z,46.37
2018-02-17T08:32:41.050Z,45.53
2018-02-17T08:35:09.558Z,46.20
2018-02-17T08:37:37.278Z,46.70
2018-02-17T08:40:04.999Z,47.70
2018-02-17T08:42:32.761Z,45.37
2018-02-17T08:45:00.517Z,45.53
2018-02-17T08:47:28.255Z,45.63
2018-02-17T08:49:56.766Z,44.80
2018-02-17T08:52:24.490Z,46.57
2018-02-17T08:54:52.977Z,44.90
2018-02-17T08:57:21.517Z,44.70
2018-02-17T08:59:49.336Z,44.73
2018-02-17T09:02:17.039Z,45.67
2018-02-17T09:04:44.847Z,44.37
2018-02-17T09:07:13.363Z,46.23
2018-02-17T09:09:41.090Z,45.03
2018-02-17T09:12:09.630Z,46.73
2018-02-17T09:14:38.097Z,46.27
2018-02-17T09:17:05.837Z,44.17
2018-02-17T09:19:33.564Z,45.13
2018-02-17T09:22:02.056Z,46.40
2018-02-17T09:24:30.565Z,45.63
2018-02-17T09:26:58.302Z,44.07
2018-02-17T09:29:26.795Z,46.13
2018-02-17T09:31:54.519Z,45.60
2018-02-17T09:34:22.323Z,43.50
2018-02-17T09:36:50.085Z,46.10
2018-02-17T09:39:17.827Z,45.23
2018-02-17T09:41:46.292Z,45.00
2018-02-17T09:44:14.016Z,44.90
2018-02-17T09:46:41.773Z,45.67
2018-02-17T09:49:09.506Z,46.93
2018-02-17T09:51:37.295Z,46.43
2018-02-17T09:54:05.093Z,44.27
2018-02-17T09:56:32.851Z,46.90
2018-02-17T09:59:00.559Z,46.90
2018-02-17T10:01:28.270Z,48.17
2018-02-17T10:03:56.030Z,45.17
2018-02-17T10:06:24.544Z,45.10
2018-02-17T10:08:53.012Z,44.10
2018-02-17T10:11:20.781Z,48.60
2018-02-17T10:13:48.598Z,43.93
2018-02-17T10:16:16.359Z,43.20
2018-02-17T10:18:44.063Z,45.63
2018-02-17T10:21:12.024Z,41.83
2018-02-17T10:23:39.851Z,47.50
2018-02-17T10:26:07.571Z,45.67
2018-02-17T10:28:36.114Z,43.53
2018-02-17T10:31:03.866Z,44.33
2018-02-17T10:33:31.655Z,45.57
2018-02-17T10:35:59.368Z,47.97
2018-02-17T10:38:27.103Z,44.87
2018-02-17T10:40:55.597Z,43.07
2018-02-17T10:43:23.335Z,44.33
2018-02-17T10:45:51.053Z,42.83
2018-02-17T10:48:18.794Z,45.73
2018-02-17T10:50:46.542Z,46.30
2018-02-17T10:53:15.047Z,44.73
2018-02-17T10:55:42.851Z,44.30
2018-02-17T10:58:10.571Z,47.00
2018-02-17T11:00:38.295Z,47.23
2018-02-17T11:03:06.815Z,45.40
2018-02-17T11:05:34.535Z,47.00
2018-02-17T11:08:03.085Z,45.17
2018-02-17T11:10:30.812Z,47.27
2018-02-17T11:12:58.559Z,47.17
2018-02-17T11:15:27.154Z,47.40
2018-02-17T11:17:54.856Z,47.00
2018-02-17T11:20:22.564Z,42.00
2018-02-17T11:22:51.080Z,44.13
2018-02-17T11:25:18.802Z,46.53
2018-02-17T11:27:47.277Z,45.83
2018-02-17T11:30:15.810Z,43.93
2018-02-17T11:32:43.522Z,46.07
2018-02-17T11:35:12.054Z,46.00
2018-02-17T11:37:39.790Z,45.83
2018-02-17T11:40:07.514Z,41.77
2018-02-17T11:42:36.027Z,44.33
2018-02-17T11:45:03.771Z,43.37
2018-02-17T11:47:32.247Z,47.77
2018-02-17T11:50:00.743Z,45.90
2018-02-17T11:52:28.467Z,46.57
2018-02-17T11:54:56.298Z,44.73
2018-02-17T11:57:24.025Z,46.33
2018-02-17T11:59:52.536Z,46.60
2018-02-17T12:02:20.326Z,45.80
2018-02-17T12:04:48.133Z,44.80
2018-02-17T12:07:16.633Z,47.30
2018-02-17T12:09:44.395Z,46.67
2018-02-17T12:12:12.107Z,44.73
2018-02-17T12:14:39.853Z,44.73
2018-02-17T12:17:07.626Z,45.03
2018-02-17T12:19:35.363Z,45.37
2018-02-17T12:22:03.083Z,44.47
2018-02-17T12:24:31.610Z,46.27
2018-02-17T12:26:59.326Z,43.77
2018-02-17T12:29:27.804Z,46.60
2018-02-17T12:31:56.318Z,45.23
2018-02-17T12:34:24.102Z,46.17
2018-02-17T12:36:52.638Z,45.77
2018-02-17T12:39:21.139Z,44.60
2018-02-17T12:41:48.886Z,44.20
2018-02-17T12:44:16.593Z,47.17
2018-02-17T12:46:44.300Z,44.80
2018-02-17T12:49:12.802Z,45.93
2018-02-17T12:51:40.618Z,44.53
2018-02-17T12:54:08.362Z,45.53
2018-02-17T12:56:36.079Z,46.50
2018-02-17T12:59:03.834Z,46.40
2018-02-17T13:01:31.582Z,44.77
2018-02-17T13:04:00.179Z,47.97
2018-02-17T13:06:28.684Z,44.63
2018-02-17T13:08:56.544Z,45.30
2018-02-17T13:11:24.269Z,45.97
2018-02-17T13:13:52.767Z,45.23
2018-02-17T13:16:21.311Z,43.77
2018-02-17T13:18:49.066Z,44.57
2018-02-17T13:21:16.892Z,46.40
2018-02-17T13:23:44.649Z,45.87
2018-02-17T13:26:12.415Z,47.03
2018-02-17T13:28:40.162Z,43.67
2018-02-17T13:31:08.663Z,50.53
2018-02-17T13:33:36.378Z,45.37
2018-02-17T13:36:04.198Z,47.03
2018-02-17T13:38:31.938Z,42.83
2018-02-17T13:40:59.694Z,44.37
2018-02-17T13:43:28.219Z,40.93
2018-02-17T13:45:56.004Z,41.33
2018-02-17T13:48:23.728Z,40.77
2018-02-17T13:50:51.448Z,34.57
2018-02-17T13:53:19.918Z,34.67
2018-02-17T13:55:47.646Z,34.50
2018-02-17T13:58:15.411Z,34.03
2018-02-17T14:00:43.199Z,30.77
2018-02-17T14:03:10.916Z,29.50
2018-02-17T14:05:38.671Z,30.03
2018-02-17T14:08:06.393Z,28.77
2018-02-17T14:10:34.198Z,29.20
2018-02-17T14:13:01.923Z,31.37
2018-02-17T14:15:30.413Z,30.37
2018-02-17T14:17:58.919Z,30.67
2018-02-17T14:20:26.648Z,28.90
2018-02-17T14:22:55.143Z,26.10
2018-02-17T14:25:22.886Z,24.67
2018-02-17T14:27:51.399Z,24.03
2018-02-17T14:30:19.108Z,23.87
2018-02-17T14:32:46.841Z,24.57
2018-02-17T14:35:14.573Z,24.67
2018-02-17T14:37:43.111Z,23.87
2018-02-17T14:40:10.827Z,24.60
2018-02-17T14:42:38.543Z,24.17
2018-02-17T14:45:06.196Z,23.90
2018-02-17T14:47:33.848Z,22.63
2018-02-17T14:50:01.521Z,21.57
2018-02-17T14:52:29.294Z,23.70
2018-02-17T14:54:56.975Z,23.20
2018-02-17T14:57:25.383Z,23.10
2018-02-17T14:59:53.068Z,22.33
2018-02-17T15:02:20.811Z,23.10
2018-02-17T15:04:48.498Z,23.00
2018-02-17T15:07:16.215Z,23.70
2018-02-17T15:09:43.874Z,24.13
2018-02-17T15:12:11.548Z,25.40
2018-02-17T15:14:39.183Z,23.53
2018-02-17T15:17:07.612Z,24.10
2018-02-17T15:19:35.311Z,25.70
2018-02-17T15:22:03.766Z,25.70
2018-02-17T15:24:31.448Z,24.83
2018-02-17T15:26:59.106Z,25.77
2018-02-17T15:29:26.775Z,24.90
2018-02-17T15:31:55.234Z,23.97
2018-02-17T15:34:22.935Z,24.77
2018-02-17T15:36:51.397Z,23.93
2018-02-17T15:39:19.941Z,22.43
2018-02-17T15:41:47.634Z,20.30
2018-02-17T15:44:16.108Z,21.00
2018-02-17T15:46:43.771Z,21.63
2018-02-17T15:49:11.440Z,21.57
2018-02-17T15:51:39.879Z,22.33
2018-02-17T15:54:07.543Z,24.33
2018-02-17T15:56:35.235Z,23.83
2018-02-17T15:59:02.898Z,22.87
2018-02-17T16:01:30.570Z,22.13
2018-02-17T16:03:59.000Z,23.10
2018-02-17T16:06:26.948Z,21.87
2018-02-17T16:08:54.607Z,22.60
2018-02-17T16:11:22.341Z,23.27
2018-02-17T16:13:50.803Z,24.63
2018-02-17T16:16:18.472Z,22.97
2018-02-17T16:18:46.918Z,23.57
2018-02-17T16:21:14.574Z,24.63
2018-02-17T16:23:42.238Z,22.83
2018-02-17T16:26:09.893Z,24.33
2018-02-17T16:28:37.553Z,24.63
2018-02-17T16:31:05.234Z,25.10
2018-02-17T16:33:32.917Z,25.50
2018-02-17T16:36:01.362Z,26.13
2018-02-17T16:38:29.815Z,25.23
2018-02-17T16:40:57.480Z,27.00
2018-02-17T16:43:25.141Z,26.83
2018-02-17T16:45:52.789Z,27.67
2018-02-17T16:48:20.526Z,25.47
2018-02-17T16:50:48.943Z,25.70
2018-02-17T16:53:16.595Z,25.80
2018-02-17T16:55:44.276Z,27.03
2018-02-17T16:58:11.920Z,26.97
2018-02-17T17:00:39.594Z,26.73
2018-02-17T17:03:07.244Z,26.63
2018-02-17T17:05:34.892Z,26.07
2018-02-17T17:08:02.589Z,27.27
2018-02-17T17:10:30.311Z,28.90
2018-02-17T17:12:58.046Z,28.60
2018-02-17T17:17:47.518Z,29.00
2018-02-17T17:20:15.170Z,31.07
2018-02-17T17:22:42.910Z,28.23
2018-02-17T17:25:10.586Z,29.33
2018-02-17T17:27:38.305Z,31.10
2018-02-17T17:30:06.011Z,28.13
2018-02-17T17:32:33.740Z,26.73
2018-02-17T17:35:01.397Z,25.47
2018-02-17T17:37:29.158Z,23.27
2018-02-17T17:39:56.815Z,22.87
2018-02-17T17:42:24.526Z,23.60
2018-02-17T17:44:52.219Z,22.30
2018-02-17T17:47:19.868Z,21.83
2018-02-17T17:49:48.318Z,21.57
2018-02-17T17:52:15.988Z,21.37
2018-02-17T17:54:43.647Z,22.53
2018-02-17T17:57:11.292Z,21.97
2018-02-17T17:59:39.704Z,20.07
2018-02-17T18:02:08.127Z,20.47
2018-02-17T18:04:35.791Z,19.93
2018-02-17T18:07:03.431Z,21.33
2018-02-17T18:09:31.080Z,21.97
2018-02-17T18:11:58.719Z,22.17
2018-02-17T18:14:27.172Z,21.63
2018-02-17T18:16:54.832Z,21.00
2018-02-17T18:19:22.497Z,22.03
2018-02-17T18:21:50.183Z,21.17
2018-02-17T18:24:18.691Z,19.57
2018-02-17T18:26:46.352Z,21.30
2018-02-17T18:29:14.003Z,17.67
2018-02-17T18:31:41.649Z,20.67
2018-02-17T18:34:10.099Z,19.67
2018-02-17T18:36:37.756Z,18.87
2018-02-17T18:39:05.534Z,18.87
2018-02-17T18:41:33.183Z,19.93
2018-02-17T18:44:00.831Z,19.70
2018-02-17T18:46:28.561Z,19.23
2018-02-17T18:48:56.235Z,19.57
2018-02-17T18:51:23.884Z,21.03
2018-02-17T18:53:51.538Z,21.30
2018-02-17T18:56:19.169Z,19.80
2018-02-17T18:58:47.660Z,20.03
2018-02-17T19:01:16.132Z,19.93
2018-02-17T19:03:44.551Z,20.40
2018-02-17T19:06:12.200Z,22.17
2018-02-17T19:08:39.858Z,22.47
2018-02-17T19:11:07.596Z,21.83
2018-02-17T19:13:36.026Z,22.73
2018-02-17T19:16:04.448Z,24.00
2018-02-17T19:18:32.877Z,22.97
2018-02-17T19:21:00.554Z,22.27
2018-02-17T19:23:28.280Z,23.70
2018-02-17T19:25:55.920Z,23.13
2018-02-17T19:28:24.356Z,25.73
2018-02-17T19:30:52.048Z,24.80
2018-02-17T19:33:20.458Z,24.67
2018-02-17T19:35:48.118Z,24.70
2018-02-17T19:38:15.771Z,25.50
2018-02-17T19:40:43.431Z,24.80
2018-02-17T19:43:11.158Z,24.87
2018-02-17T19:45:38.800Z,25.27
2018-02-17T19:48:06.475Z,24.73
2018-02-17T19:50:34.143Z,25.87
2018-02-17T19:53:01.806Z,24.80
2018-02-17T19:55:29.491Z,22.83
2018-02-17T19:57:57.195Z,23.23
2018-02-17T20:00:24.865Z,21.87
2018-02-17T20:02:52.540Z,23.67
2018-02-17T20:05:20.220Z,21.63
2018-02-17T20:07:48.646Z,21.20
2018-02-17T20:10:16.329Z,21.23
2018-02-17T20:12:43.987Z,20.07
2018-02-17T20:15:11.644Z,20.50
2018-02-17T20:17:39.365Z,21.07
2018-02-17T20:20:07.028Z,21.03
2018-02-17T20:22:34.672Z,22.00
2018-02-17T20:25:03.075Z,21.30
2018-02-17T20:27:30.736Z,21.57
2018-02-17T20:29:58.370Z,20.77
2018-02-17T20:32:26.789Z,20.70
2018-02-17T20:34:54.456Z,21.10
2018-02-17T20:37:22.186Z,21.97
2018-02-17T20:39:49.833Z,19.87
2018-02-17T20:42:18.247Z,19.87
2018-02-17T20:44:45.894Z,20.10
2018-02-17T20:47:13.555Z,19.67
2018-02-17T20:49:41.214Z,20.70
2018-02-17T20:52:08.870Z,19.77
2018-02-17T20:54:36.614Z,18.80
2018-02-17T20:57:05.016Z,20.10
2018-02-17T20:59:32.657Z,18.20
2018-02-17T21:02:00.334Z,19.77
2018-02-17T21:04:28.121Z,20.20
2018-02-17T21:06:55.811Z,18.77
2018-02-17T21:09:23.459Z,18.60
2018-02-17T21:11:51.119Z,19.00
2018-02-17T21:14:18.764Z,18.57
2018-02-17T21:16:46.455Z,19.97
2018-02-17T21:19:14.228Z,18.77
2018-02-17T21:21:41.878Z,18.03
2018-02-17T21:24:09.528Z,18.80
2018-02-17T21:26:37.203Z,18.30
2018-02-17T21:29:04.865Z,18.47
2018-02-17T21:31:32.517Z,18.33
2018-02-17T21:34:00.180Z,17.73
2018-02-17T21:36:27.892Z,19.03
2018-02-17T21:38:55.536Z,17.00
2018-02-17T21:41:23.203Z,16.53
2018-02-17T21:43:50.854Z,18.03
2018-02-17T21:46:18.527Z,15.60
2018-02-17T21:48:46.190Z,16.90
2018-02-17T21:51:13.874Z,16.13
2018-02-17T21:53:41.534Z,14.77
2018-02-17T21:56:09.218Z,15.33
2018-02-17T21:58:36.868Z,14.97
2018-02-17T22:01:04.604Z,16.43
2018-02-17T22:03:32.252Z,15.23
2018-02-17T22:05:59.904Z,15.33
2018-02-17T22:08:27.558Z,15.17
2018-02-17T22:10:55.978Z,15.10
2018-02-17T22:13:23.647Z,15.10
2018-02-17T22:15:51.320Z,14.80
2018-02-17T22:18:18.980Z,15.73
2018-02-17T22:20:46.639Z,16.43
2018-02-17T22:23:14.299Z,16.13
2018-02-17T22:25:42.011Z,15.37
2018-02-17T22:28:09.655Z,16.63
2018-02-17T22:30:38.079Z,15.67
2018-02-17T22:33:06.555Z,15.43
2018-02-17T22:35:34.234Z,15.80
2018-02-17T22:38:01.904Z,16.23
2018-02-17T22:40:29.615Z,15.63
2018-02-17T22:42:57.262Z,16.07
2018-02-17T22:45:25.681Z,15.67
2018-02-17T22:47:53.365Z,15.93
2018-02-17T22:50:21.040Z,16.30
2018-02-17T22:52:48.762Z,15.87
2018-02-17T22:55:16.498Z,16.80
2018-02-17T22:57:44.171Z,21.47
2018-02-17T23:00:23.707Z,21.00
2018-02-17T23:02:51.347Z,21.70
2018-02-17T23:05:19.798Z,21.67
2018-02-17T23:07:47.455Z,19.33
2018-02-17T23:10:15.119Z,20.33
2018-02-17T23:12:42.831Z,19.80
2018-02-17T23:15:10.538Z,18.60
2018-02-17T23:17:38.229Z,16.73
2018-02-17T23:20:06.680Z,17.53
2018-02-17T23:22:34.336Z,17.17
2018-02-17T23:25:02.037Z,17.43
2018-02-17T23:27:29.733Z,17.63
2018-02-17T23:29:57.407Z,17.07
2018-02-17T23:32:25.092Z,17.77
2018-02-17T23:34:52.763Z,17.17
2018-02-17T23:37:21.179Z,15.73
2018-02-17T23:39:48.856Z,16.50
2018-02-17T23:42:16.530Z,16.67
2018-02-17T23:44:44.995Z,17.50
2018-02-17T23:47:12.710Z,17.17
2018-02-17T23:49:41.152Z,16.43
2018-02-17T23:52:08.801Z,18.20
2018-02-17T23:54:36.521Z,17.90
2018-02-17T23:57:04.235Z,18.27
2018-02-17T23:59:31.910Z,19.73
